Time;durP1;ratioP1;P1;durP2;ratioP2;P2;SDS_P1;SDS_P2;PMS_P1;PMS_P2;Temp;Humidity;BMP_temperature;BMP_pressure;BME280_temperature;BME280_humidity;BME280_pressure;Samples;Min_cycle;Max_cycle;Signal;HPM_P1;HPM_P2
2021/06/27 00:02:13;;;;;;;6.05;3.53;;;;;;;11.81;83.33;101725.19;4967324;28;20036;-84
2021/06/27 00:04:38;;;;;;;5.32;3.03;;;;;;;11.78;83.66;101728.22;4944127;28;20034;-85
2021/06/27 00:07:04;;;;;;;5.50;3.55;;;;;;;11.73;83.99;101727.84;4968855;28;20022;-85
2021/06/27 00:09:29;;;;;;;3.85;3.00;;;;;;;11.60;84.01;101703.19;4962550;28;20446;-86
2021/06/27 00:11:55;;;;;;;5.35;2.95;;;;;;;11.65;83.66;101719.72;4971425;28;20550;-85
2021/06/27 00:14:21;;;;;;;4.18;2.78;;;;;;;11.53;83.94;101707.50;4983095;28;20521;-84
2021/06/27 00:16:49;;;;;;;4.82;2.75;;;;;;;11.55;84.33;101721.69;4957229;28;20423;-84
2021/06/27 00:19:15;;;;;;;6.28;3.30;;;;;;;11.48;84.74;101723.31;4954645;28;20035;-86
2021/06/27 00:21:41;;;;;;;5.20;2.88;;;;;;;11.35;84.79;101712.94;4980279;28;20092;-85
2021/06/27 00:24:06;;;;;;;4.43;2.60;;;;;;;11.30;85.10;101708.06;4945843;28;20065;-85
2021/06/27 00:26:32;;;;;;;5.20;3.00;;;;;;;11.25;85.37;101704.16;4972940;28;20422;-85
2021/06/27 00:28:58;;;;;;;4.25;3.00;;;;;;;11.31;85.48;101712.41;4990383;28;20030;-85
2021/06/27 00:31:24;;;;;;;4.25;3.00;;;;;;;11.15;85.58;101690.78;4984005;28;20038;-85
2021/06/27 00:33:49;;;;;;;6.13;2.97;;;;;;;11.20;85.89;101702.75;4957683;28;20070;-85
2021/06/27 00:36:15;;;;;;;7.20;2.70;;;;;;;11.25;85.44;101702.28;4971368;28;20029;-85
2021/06/27 00:38:40;;;;;;;6.38;3.13;;;;;;;11.31;85.71;101717.81;4971721;28;20037;-86
2021/06/27 00:41:06;;;;;;;7.68;3.33;;;;;;;11.10;85.71;101677.78;4963389;28;20030;-84
2021/06/27 00:43:33;;;;;;;5.97;3.50;;;;;;;11.22;86.02;101684.59;4955277;28;20377;-85
2021/06/27 00:45:59;;;;;;;6.43;3.63;;;;;;;11.37;85.89;101716.31;4958360;28;20441;-85
2021/06/27 00:48:25;;;;;;;6.03;3.50;;;;;;;11.26;85.52;101679.75;4992704;28;20491;-86
2021/06/27 00:50:54;;;;;;;7.43;3.42;;;;;;;11.33;85.48;101694.28;4976915;28;20057;-85
2021/06/27 00:53:19;;;;;;;4.70;3.10;;;;;;;11.21;85.62;101677.50;4970847;28;20023;-85
2021/06/27 00:55:54;;;;;;;6.97;3.72;;;;;;;11.22;85.43;101676.53;4958978;28;20053;-84
2021/06/27 00:58:33;;;;;;;4.28;2.83;;;;;;;11.27;85.47;101692.19;4976042;28;20079;-85
2021/06/27 01:01:00;;;;;;;4.38;3.33;;;;;;;11.29;85.22;101698.28;4977136;28;20031;-85
2021/06/27 01:03:26;;;;;;;6.38;3.60;;;;;;;11.32;85.52;101694.41;4963232;28;20038;-85
2021/06/27 01:05:52;;;;;;;6.25;3.78;;;;;;;11.35;85.06;101700.34;4962001;28;20033;-87
2021/06/27 01:08:18;;;;;;;5.32;3.25;;;;;;;11.25;85.03;101688.84;4979438;28;20034;-85
2021/06/27 01:10:46;;;;;;;9.75;4.00;;;;;;;11.30;84.78;101699.97;4961131;28;20554;-85
2021/06/27 01:13:12;;;;;;;6.60;4.22;;;;;;;11.22;84.74;101689.16;4997320;28;20046;-86
2021/06/27 01:15:38;;;;;;;6.90;3.95;;;;;;;11.32;84.87;101706.03;4981315;28;20022;-86
2021/06/27 01:18:04;;;;;;;8.95;4.13;;;;;;;11.29;84.91;101698.28;4963184;28;20042;-85
2021/06/27 01:20:32;;;;;;;6.75;4.60;;;;;;;11.31;85.07;101700.81;4997221;28;20030;-84
2021/06/27 01:23:01;;;;;;;5.75;3.72;;;;;;;11.25;84.75;101694.22;4998538;28;20125;-85
2021/06/27 01:25:34;;;;;;;7.70;3.80;;;;;;;11.09;85.09;101683.34;4970230;28;20057;-85
2021/06/27 01:28:00;;;;;;;6.63;3.40;;;;;;;11.11;85.30;101695.59;4951374;28;20418;-85
2021/06/27 01:30:27;;;;;;;6.45;3.70;;;;;;;10.97;85.19;101697.00;4980093;28;20019;-84
2021/06/27 01:32:55;;;;;;;7.10;3.45;;;;;;;10.82;85.81;101685.09;4958632;28;20038;-84
2021/06/27 01:35:23;;;;;;;5.82;3.47;;;;;;;10.82;85.82;101695.03;4963435;28;20042;-86
2021/06/27 01:37:53;;;;;;;5.57;3.53;;;;;;;10.81;86.03;101702.25;4963004;28;20475;-86
2021/06/27 01:40:22;;;;;;;7.72;3.45;;;;;;;10.56;86.02;101664.38;4978126;28;20484;-85
2021/06/27 01:42:48;;;;;;;7.95;4.10;;;;;;;10.65;85.99;101677.91;4962449;28;20118;-85
2021/06/27 01:45:24;;;;;;;10.00;4.00;;;;;;;10.81;85.40;101699.56;4979541;28;20128;-85
2021/06/27 01:48:03;;;;;;;4.53;3.50;;;;;;;10.82;84.98;101695.88;4978524;28;20064;-83
2021/06/27 01:50:30;;;;;;;6.50;3.28;;;;;;;10.72;85.16;101684.38;4952995;28;20035;-84
2021/06/27 01:52:57;;;;;;;7.63;4.55;;;;;;;10.64;85.27;101687.81;4962685;28;20062;-85
2021/06/27 01:55:24;;;;;;;6.95;4.50;;;;;;;10.63;86.00;101694.19;4978943;28;20030;-86
2021/06/27 01:57:50;;;;;;;7.22;4.13;;;;;;;10.56;86.75;101690.44;4956754;28;20058;-86
2021/06/27 02:00:16;;;;;;;5.47;4.13;;;;;;;10.50;86.81;101681.09;4958465;28;20058;-85
2021/06/27 02:02:43;;;;;;;7.30;4.10;;;;;;;10.52;86.09;101683.66;4977273;28;20027;-85
2021/06/27 02:05:09;;;;;;;7.63;4.18;;;;;;;10.49;86.00;101674.06;4963338;28;20069;-84
2021/06/27 02:07:38;;;;;;;6.70;4.60;;;;;;;10.58;85.57;101693.78;4979483;28;20080;-85
2021/06/27 02:10:09;;;;;;;6.53;3.83;;;;;;;10.54;85.49;101695.94;4972707;28;20030;-84
2021/06/27 02:12:35;;;;;;;10.75;3.92;;;;;;;10.38;85.40;101681.50;4980641;28;20093;-85
2021/06/27 02:15:01;;;;;;;6.90;4.00;;;;;;;10.42;85.55;101693.63;4959951;28;20022;-85
2021/06/27 02:17:26;;;;;;;6.18;3.50;;;;;;;10.28;85.45;101690.47;4977631;28;20038;-85
2021/06/27 02:19:54;;;;;;;4.90;3.63;;;;;;;10.28;85.95;101700.38;4992034;28;20042;-83
2021/06/27 02:22:20;;;;;;;8.80;4.25;;;;;;;10.22;86.17;101692.91;4973574;28;20022;-85
2021/06/27 02:24:46;;;;;;;6.57;4.00;;;;;;;10.03;85.75;101678.56;4974728;28;20953;-84
2021/06/27 02:27:11;;;;;;;7.68;4.20;;;;;;;10.07;86.67;101687.16;4973074;28;20033;-86
2021/06/27 02:29:37;;;;;;;5.38;3.58;;;;;;;10.04;86.75;101696.38;4990083;28;20036;-85
2021/06/27 02:32:04;;;;;;;7.18;3.92;;;;;;;9.98;86.22;101683.53;4975507;28;20034;-84
2021/06/27 02:34:30;;;;;;;6.78;3.70;;;;;;;10.09;86.15;101701.31;4958924;28;20121;-85
2021/06/27 02:36:57;;;;;;;7.07;3.67;;;;;;;9.93;85.87;101661.66;4977130;28;20467;-86
2021/06/27 02:39:22;;;;;;;5.13;3.70;;;;;;;10.07;86.03;101690.69;4958101;28;20113;-84
2021/06/27 02:41:48;;;;;;;4.75;3.33;;;;;;;9.82;85.33;101661.84;4958461;28;20061;-85
2021/06/27 02:44:13;;;;;;;8.20;3.72;;;;;;;9.87;85.37;101675.66;4964478;28;20487;-83
2021/06/27 02:46:39;;;;;;;5.45;3.60;;;;;;;9.93;85.41;101696.56;4955591;28;20030;-85
2021/06/27 02:49:04;;;;;;;6.68;3.80;;;;;;;9.78;85.66;101682.78;4943013;28;20038;-86
2021/06/27 02:51:30;;;;;;;8.15;3.65;;;;;;;9.61;86.35;101662.94;4971950;28;20038;-85
2021/06/27 02:53:55;;;;;;;9.48;3.78;;;;;;;9.77;86.32;101689.16;4976219;28;20037;-86
2021/06/27 02:56:21;;;;;;;5.47;3.47;;;;;;;9.78;86.15;101690.81;4962561;28;20018;-83
2021/06/27 02:58:48;;;;;;;8.00;3.20;;;;;;;9.73;85.46;101686.91;4989090;28;20514;-85
2021/06/27 03:01:16;;;;;;;6.13;3.20;;;;;;;9.63;85.52;101685.13;4959788;28;20023;-85
2021/06/27 03:03:42;;;;;;;5.10;3.55;;;;;;;9.37;85.82;101659.91;4972866;28;20030;-84
2021/06/27 03:06:09;;;;;;;5.85;3.80;;;;;;;9.42;85.46;101663.84;4964387;28;20023;-85
2021/06/27 03:08:35;;;;;;;4.88;2.95;;;;;;;9.52;85.53;101682.59;4958648;28;20022;-85
2021/06/27 03:11:01;;;;;;;7.25;3.60;;;;;;;9.31;85.59;101663.16;4969730;28;20034;-85
2021/06/27 03:13:27;;;;;;;6.53;3.40;;;;;;;9.47;85.32;101684.84;4973620;28;20033;-85
2021/06/27 03:15:53;;;;;;;6.47;3.72;;;;;;;9.46;85.45;101692.06;4955973;28;20101;-84
2021/06/27 03:18:18;;;;;;;7.30;3.88;;;;;;;9.39;85.00;101679.38;4973113;28;20029;-84
2021/06/27 03:20:44;;;;;;;5.28;3.28;;;;;;;9.35;85.08;101680.69;4987224;28;20032;-86
2021/06/27 03:23:10;;;;;;;6.90;3.50;;;;;;;9.35;85.39;101702.16;4959561;28;20023;-84
2021/06/27 03:25:36;;;;;;;8.75;4.20;;;;;;;9.12;85.59;101681.00;4965568;28;20484;-83
2021/06/27 03:28:03;;;;;;;7.93;3.65;;;;;;;9.14;85.82;101670.97;4991802;28;20100;-84
2021/06/27 03:30:28;;;;;;;6.72;4.53;;;;;;;9.11;85.60;101654.31;4974816;28;20023;-84
2021/06/27 03:32:54;;;;;;;5.57;3.55;;;;;;;9.15;85.56;101659.22;4956913;28;20050;-84
2021/06/27 03:35:20;;;;;;;8.90;3.67;;;;;;;9.09;85.52;101653.59;4967936;28;20023;-86
2021/06/27 03:37:53;;;;;;;5.65;3.90;;;;;;;9.14;85.30;101668.28;4958965;28;20624;-84
2021/06/27 03:40:20;;;;;;;;;;;;;;;9.18;85.05;101668.81;4972072;28;20035;-85
2021/06/27 03:42:46;;;;;;;5.50;3.17;;;;;;;9.03;85.21;101655.03;4973020;28;20034;-85
2021/06/27 03:45:13;;;;;;;5.15;3.33;;;;;;;9.00;84.80;101653.47;4973062;28;20495;-84
2021/06/27 03:47:39;;;;;;;5.68;3.78;;;;;;;9.02;85.12;101670.28;4957926;28;20677;-85
2021/06/27 03:50:04;;;;;;;6.28;3.40;;;;;;;8.94;85.08;101650.50;4974986;28;20034;-84
2021/06/27 03:52:30;;;;;;;5.82;3.15;;;;;;;8.77;84.58;101627.97;4961127;28;20026;-86
2021/06/27 03:54:55;;;;;;;5.00;3.50;;;;;;;8.93;84.15;101654.19;4976506;28;20105;-85
2021/06/27 03:57:21;;;;;;;7.40;3.65;;;;;;;8.87;84.32;101646.75;4960161;28;20049;-84
2021/06/27 03:59:46;;;;;;;6.80;3.50;;;;;;;8.80;84.18;101651.81;4994173;28;20027;-84
2021/06/27 04:02:12;;;;;;;7.32;2.88;;;;;;;8.81;84.49;101656.16;4978913;28;20038;-84
2021/06/27 04:04:37;;;;;;;4.65;3.15;;;;;;;8.68;84.59;101635.03;4972540;28;20031;-85
2021/06/27 04:07:03;;;;;;;5.80;2.70;;;;;;;8.77;85.23;101652.94;4961160;28;20033;-85
2021/06/27 04:09:29;;;;;;;5.28;2.30;;;;;;;8.61;85.31;101650.00;4964958;28;20030;-85
2021/06/27 04:11:54;;;;;;;5.38;2.60;;;;;;;8.45;85.82;101629.09;4960681;28;20038;-86
2021/06/27 04:14:20;;;;;;;3.50;2.60;;;;;;;8.57;85.28;101653.91;4976782;28;20062;-85
2021/06/27 04:16:45;;;;;;;5.90;3.17;;;;;;;8.61;85.26;101655.34;4995383;28;20018;-85
2021/06/27 04:19:11;;;;;;;3.92;2.42;;;;;;;8.67;85.47;101664.66;4960038;28;20038;-85
2021/06/27 04:21:36;;;;;;;5.38;3.55;;;;;;;8.68;85.22;101651.13;4957825;28;20070;-85
2021/06/27 04:24:02;;;;;;;6.57;2.97;;;;;;;8.68;85.29;101645.75;4963665;28;20039;-85
2021/06/27 04:26:28;;;;;;;8.73;4.00;;;;;;;8.70;85.29;101646.44;4965672;28;20069;-85
2021/06/27 04:28:53;;;;;;;5.90;3.75;;;;;;;8.67;85.80;101633.31;4960550;28;20038;-85
2021/06/27 04:31:19;;;;;;;7.68;3.70;;;;;;;8.73;86.64;101637.25;4969458;28;20034;-84
2021/06/27 04:33:44;;;;;;;7.75;3.65;;;;;;;8.80;86.81;101638.41;4956936;28;20030;-85
2021/06/27 04:36:10;;;;;;;5.25;2.97;;;;;;;8.75;87.27;101636.13;4960878;28;20061;-84
2021/06/27 04:38:35;;;;;;;7.15;3.70;;;;;;;8.83;87.60;101626.53;4967122;28;20030;-85
2021/06/27 04:41:01;;;;;;;10.25;4.03;;;;;;;9.01;88.48;101640.91;4994935;28;20487;-85
2021/06/27 04:43:26;;;;;;;7.45;3.67;;;;;;;9.04;88.23;101637.94;4954547;28;20033;-86
2021/06/27 04:45:52;;;;;;;9.02;3.92;;;;;;;9.13;88.12;101642.47;4981081;28;20026;-84
2021/06/27 04:48:18;;;;;;;5.80;3.60;;;;;;;9.10;88.11;101637.34;4982061;28;20026;-86
2021/06/27 04:50:45;;;;;;;5.35;3.92;;;;;;;9.19;87.47;101647.22;4981428;28;20042;-86
2021/06/27 04:53:13;;;;;;;7.32;3.38;;;;;;;9.27;87.37;101646.50;4962879;28;20037;-85
2021/06/27 04:55:39;;;;;;;8.63;4.18;;;;;;;9.32;87.56;101643.41;4966609;28;20022;-84
2021/06/27 04:58:04;;;;;;;9.88;3.90;;;;;;;9.35;87.62;101635.88;4979601;28;20550;-85
2021/06/27 05:00:30;;;;;;;7.07;3.97;;;;;;;9.42;87.69;101641.50;4974007;28;20118;-86
2021/06/27 05:02:56;;;;;;;7.32;3.53;;;;;;;9.41;87.55;101634.44;4960669;28;20026;-86
2021/06/27 05:05:21;;;;;;;9.68;3.75;;;;;;;9.58;87.59;101648.94;4961119;28;20030;-85
2021/06/27 05:07:47;;;;;;;7.47;3.47;;;;;;;9.58;87.63;101647.13;4960734;28;20742;-84
2021/06/27 05:10:12;;;;;;;8.60;4.13;;;;;;;9.66;87.44;101647.22;4978204;28;20406;-86
2021/06/27 05:12:38;;;;;;;8.02;3.90;;;;;;;9.57;87.31;101621.25;4977772;28;20033;-85
2021/06/27 05:15:04;;;;;;;7.70;3.55;;;;;;;9.76;87.41;101644.47;4976942;28;20022;-86
2021/06/27 05:17:30;;;;;;;7.50;3.42;;;;;;;9.69;87.12;101620.06;4960136;28;20030;-85
2021/06/27 05:19:55;;;;;;;7.68;3.78;;;;;;;9.77;86.42;101629.22;4976890;28;20112;-84
2021/06/27 05:22:21;;;;;;;7.45;3.92;;;;;;;10.04;86.48;101666.81;4976041;28;20046;-84
2021/06/27 05:24:46;;;;;;;6.60;3.97;;;;;;;10.02;86.85;101663.41;4976564;28;20034;-85
2021/06/27 05:27:12;;;;;;;5.55;3.63;;;;;;;10.00;86.43;101652.00;4955386;28;20026;-85
2021/06/27 05:29:37;;;;;;;7.55;3.47;;;;;;;10.03;86.23;101658.88;4965369;28;20030;-84
2021/06/27 05:32:03;;;;;;;6.95;3.50;;;;;;;10.11;86.54;101662.53;4977945;28;20034;-86
2021/06/27 05:34:30;;;;;;;9.00;3.40;;;;;;;10.24;86.43;101659.50;4988616;28;20353;-84
2021/06/27 05:36:57;;;;;;;8.23;3.70;;;;;;;10.25;86.03;101646.91;4997974;28;20022;-85
2021/06/27 05:39:23;;;;;;;8.68;3.88;;;;;;;10.27;86.04;101639.53;4992268;28;20044;-85
2021/06/27 05:41:49;;;;;;;8.23;4.13;;;;;;;10.44;85.88;101652.16;4995805;28;20030;-85
2021/06/27 05:44:15;;;;;;;8.85;4.10;;;;;;;10.50;85.62;101650.69;4968700;28;20086;-86
2021/06/27 05:46:41;;;;;;;7.65;3.45;;;;;;;10.37;85.24;101620.66;4967048;28;20041;-85
2021/06/27 05:49:06;;;;;;;7.95;3.90;;;;;;;10.59;85.56;101654.31;4975236;28;20026;-86
2021/06/27 05:51:33;;;;;;;7.68;3.45;;;;;;;10.60;84.78;101639.88;4967391;28;20054;-84
2021/06/27 05:53:58;;;;;;;5.90;3.58;;;;;;;10.80;84.79;101668.28;4974821;28;20040;-83
2021/06/27 05:56:24;;;;;;;6.78;3.25;;;;;;;10.80;84.52;101654.84;4974236;28;20515;-86
2021/06/27 05:58:50;;;;;;;7.93;3.40;;;;;;;10.98;83.99;101661.06;4976281;28;20117;-84
2021/06/27 06:01:17;;;;;;;10.15;3.80;;;;;;;11.06;83.75;101662.09;4957114;28;20093;-85
2021/06/27 06:03:43;;;;;;;7.75;3.50;;;;;;;11.06;83.35;101637.88;4973167;28;20022;-84
2021/06/27 06:06:10;;;;;;;6.20;2.63;;;;;;;11.16;82.86;101644.84;4972415;28;20030;-85
2021/06/27 06:08:37;;;;;;;7.90;3.15;;;;;;;11.31;82.07;101650.50;4973718;28;20037;-85
2021/06/27 06:11:02;;;;;;;6.55;3.40;;;;;;;11.36;81.95;101647.34;4955856;28;20027;-85
2021/06/27 06:13:28;;;;;;;8.43;3.25;;;;;;;11.24;81.20;101611.75;4971735;28;20022;-85
2021/06/27 06:15:54;;;;;;;7.60;3.67;;;;;;;11.54;80.62;101645.41;4976153;28;20026;-85
2021/06/27 06:18:19;;;;;;;5.45;2.83;;;;;;;11.48;80.38;101624.50;4997643;28;20034;-85
2021/06/27 06:20:44;;;;;;;5.50;3.10;;;;;;;11.53;79.95;101624.84;4962566;28;20073;-85
2021/06/27 06:23:10;;;;;;;10.70;3.45;;;;;;;11.77;79.07;101648.38;4976016;28;20152;-85
2021/06/27 06:25:35;;;;;;;7.03;3.13;;;;;;;11.67;79.08;101623.44;4968220;28;20025;-85
2021/06/27 06:28:01;;;;;;;6.75;3.55;;;;;;;11.75;78.72;101628.84;4994680;28;20483;-84
2021/06/27 06:30:26;;;;;;;7.57;3.40;;;;;;;11.82;78.27;101635.25;4976647;28;20098;-86
2021/06/27 06:32:52;;;;;;;6.18;2.83;;;;;;;11.95;78.58;101647.47;4993911;28;20041;-85
2021/06/27 06:35:18;;;;;;;6.72;2.83;;;;;;;12.12;77.84;101654.63;4977430;28;20022;-86
2021/06/27 06:37:43;;;;;;;4.57;2.95;;;;;;;12.19;78.05;101644.84;4986573;28;20041;-85
2021/06/27 06:40:10;;;;;;;7.43;3.25;;;;;;;12.09;77.53;101615.34;4972999;28;20070;-86
2021/06/27 06:42:35;;;;;;;6.20;2.92;;;;;;;12.34;77.22;101650.44;4974902;28;20061;-85
2021/06/27 06:45:01;;;;;;;4.43;2.90;;;;;;;12.31;77.23;101643.53;4946680;28;20026;-85
2021/06/27 06:47:26;;;;;;;4.30;2.95;;;;;;;12.41;76.72;101643.38;4954569;28;20038;-85
2021/06/27 06:49:52;;;;;;;6.65;3.17;;;;;;;12.45;76.02;101655.53;4956697;28;20031;-85
2021/06/27 06:52:17;;;;;;;5.90;2.88;;;;;;;12.56;75.75;101665.13;4991090;28;20459;-85
2021/06/27 06:54:43;;;;;;;4.05;2.80;;;;;;;12.46;76.08;101642.88;4981230;28;20030;-84
2021/06/27 06:57:09;;;;;;;5.70;3.65;;;;;;;12.59;75.84;101656.72;4975211;28;20114;-85
2021/06/27 06:59:34;;;;;;;5.95;3.22;;;;;;;12.71;75.52;101668.03;4971816;28;20479;-85
2021/06/27 07:02:00;;;;;;;4.82;2.63;;;;;;;12.80;75.81;101658.06;4965220;28;20037;-85
2021/06/27 07:04:25;;;;;;;5.25;2.60;;;;;;;12.81;75.13;101651.66;4955833;28;20037;-84
2021/06/27 07:06:51;;;;;;;5.75;3.28;;;;;;;12.99;74.60;101663.13;4972656;28;20026;-85
2021/06/27 07:09:17;;;;;;;5.38;2.95;;;;;;;12.92;74.57;101637.84;4967088;28;20046;-85
2021/06/27 07:11:43;;;;;;;4.25;2.67;;;;;;;13.10;74.14;101665.50;4981896;28;20019;-85
2021/06/27 07:14:08;;;;;;;6.60;2.85;;;;;;;13.20;73.67;101668.88;4976036;28;20034;-84
2021/06/27 07:16:34;;;;;;;4.55;2.60;;;;;;;13.25;73.79;101659.41;4955597;28;20023;-85
2021/06/27 07:18:59;;;;;;;6.90;3.30;;;;;;;13.36;74.10;101656.34;4990597;28;20030;-85
2021/06/27 07:21:28;;;;;;;3.50;2.22;;;;;;;13.47;73.45;101663.25;4971817;28;20023;-84
2021/06/27 07:23:57;;;;;;;4.78;2.60;;;;;;;13.49;73.08;101659.38;4975554;28;20034;-85
2021/06/27 07:26:23;;;;;;;3.65;2.80;;;;;;;13.51;72.86;101656.50;4973855;28;20019;-85
2021/06/27 07:28:49;;;;;;;6.38;3.05;;;;;;;13.63;72.50;101663.25;4957009;28;20051;-84
2021/06/27 07:31:15;;;;;;;4.90;2.95;;;;;;;13.73;72.21;101661.16;4966217;28;20030;-85
2021/06/27 07:33:40;;;;;;;5.63;2.60;;;;;;;13.71;71.84;101643.44;4972369;28;20109;-86
2021/06/27 07:36:06;;;;;;;4.68;2.78;;;;;;;13.81;71.90;101642.22;4974160;28;20069;-85
2021/06/27 07:38:32;;;;;;;5.20;2.65;;;;;;;14.03;71.75;101658.69;4946404;28;20023;-84
2021/06/27 07:40:57;;;;;;;3.83;2.53;;;;;;;14.16;71.76;101655.41;4980343;28;20034;-85
2021/06/27 07:43:23;;;;;;;5.82;2.42;;;;;;;14.21;70.92;101669.22;4951921;28;20027;-84
2021/06/27 07:45:48;;;;;;;7.68;2.65;;;;;;;14.24;70.79;101663.47;4974735;28;20083;-85
2021/06/27 07:48:14;;;;;;;7.40;2.65;;;;;;;14.25;71.27;101654.31;4981117;28;20042;-85
2021/06/27 07:50:40;;;;;;;4.57;2.20;;;;;;;14.40;71.15;101660.66;4978316;28;20054;-84
2021/06/27 07:53:05;;;;;;;4.88;2.58;;;;;;;14.46;70.61;101661.81;4964022;28;20023;-86
2021/06/27 07:55:32;;;;;;;6.05;2.40;;;;;;;14.51;70.04;101662.94;4959482;28;20662;-85
2021/06/27 07:57:57;;;;;;;3.97;2.17;;;;;;;14.62;69.64;101677.97;4942198;28;20038;-79
2021/06/27 08:00:23;;;;;;;5.28;2.35;;;;;;;14.61;69.45;101664.63;4959592;28;20030;-79
2021/06/27 08:02:49;;;;;;;4.55;2.30;;;;;;;14.65;68.16;101669.47;4969262;28;20086;-78
2021/06/27 08:05:14;;;;;;;4.57;2.22;;;;;;;14.70;68.21;101658.94;4970768;28;20085;-78
2021/06/27 08:07:40;;;;;;;3.72;2.15;;;;;;;14.79;68.26;101654.34;4971865;28;20077;-77
2021/06/27 08:10:07;;;;;;;4.18;2.28;;;;;;;14.84;67.71;101653.75;4968141;28;20159;-79
2021/06/27 08:12:33;;;;;;;4.68;2.20;;;;;;;14.89;67.68;101663.03;4972258;28;20037;-79
2021/06/27 08:14:59;;;;;;;4.57;1.98;;;;;;;14.87;67.88;101648.84;4988488;28;20034;-79
2021/06/27 08:17:25;;;;;;;4.25;2.35;;;;;;;15.07;67.51;101651.03;4956388;28;20053;-79
2021/06/27 08:19:50;;;;;;;3.38;2.10;;;;;;;15.19;66.91;101646.88;4985262;28;20053;-79
2021/06/27 08:22:16;;;;;;;4.05;2.22;;;;;;;15.34;66.67;101642.28;4973272;28;20022;-79
2021/06/27 08:24:42;;;;;;;3.28;2.13;;;;;;;15.45;66.13;101646.41;4971595;28;20026;-80
2021/06/27 08:27:08;;;;;;;3.72;1.95;;;;;;;15.47;65.46;101640.81;4973729;28;20034;-79
2021/06/27 08:29:34;;;;;;;2.83;1.98;;;;;;;15.56;65.05;101645.13;4969450;28;20045;-80
2021/06/27 08:31:59;;;;;;;3.75;2.03;;;;;;;15.67;65.16;101655.47;4953940;28;20030;-80
2021/06/27 08:34:25;;;;;;;3.40;1.95;;;;;;;15.74;64.90;101642.88;4972545;28;20058;-80
2021/06/27 08:36:51;;;;;;;4.30;2.30;;;;;;;15.79;64.43;101640.44;4974243;28;20030;-80
2021/06/27 08:39:16;;;;;;;2.60;1.85;;;;;;;15.86;64.68;101626.13;4972843;28;20041;-81
2021/06/27 08:41:42;;;;;;;4.15;1.92;;;;;;;16.14;63.99;101637.97;4974836;28;20023;-81
2021/06/27 08:44:10;;;;;;;3.35;1.98;;;;;;;16.25;63.19;101632.03;4977470;28;20034;-79
2021/06/27 08:46:37;;;;;;;4.20;2.00;;;;;;;16.34;63.34;101618.34;4967953;28;20037;-80
2021/06/27 08:49:04;;;;;;;3.72;1.75;;;;;;;16.57;62.80;101620.88;4980440;28;20072;-78
2021/06/27 08:51:39;;;;;;;4.13;2.10;;;;;;;16.67;62.61;101622.22;4975768;28;20499;-79
2021/06/27 08:54:06;;;;;;;5.25;2.80;;;;;;;16.89;62.54;101620.34;4977225;28;20030;-80
2021/06/27 08:56:31;;;;;;;5.13;2.65;;;;;;;17.02;62.43;101610.63;4990627;28;20014;-79
2021/06/27 08:58:57;;;;;;;3.33;2.40;;;;;;;17.23;62.55;101617.88;4985962;28;20493;-78
2021/06/27 09:01:22;;;;;;;4.30;2.25;;;;;;;17.44;61.98;101623.25;4983931;28;20030;-77
2021/06/27 09:03:59;;;;;;;3.47;1.98;;;;;;;17.39;60.29;101612.13;4962701;28;20035;-78
2021/06/27 09:06:24;;;;;;;4.40;2.00;;;;;;;17.46;60.37;101623.84;4962017;28;20038;-78
2021/06/27 09:09:12;;;;;;;6.18;2.40;;;;;;;17.61;60.51;101629.19;4995992;28;20601;-79
2021/06/27 09:12:05;;;;;;;3.33;2.17;;;;;;;17.72;59.97;101622.34;4990078;28;20034;-85
2021/06/27 09:14:33;;;;;;;;;;;;;;;17.88;59.38;101621.19;4973145;28;20035;-86
2021/06/27 09:17:05;;;;;;;3.60;1.92;;;;;;;17.98;58.71;101618.91;4981406;28;20341;-86
2021/06/27 09:19:30;;;;;;;3.15;1.80;;;;;;;18.06;58.74;101605.13;4996523;28;20400;-85
2021/06/27 09:22:10;;;;;;;4.03;1.95;;;;;;;18.14;58.53;101613.09;4995638;28;20045;-86
2021/06/27 09:24:35;;;;;;;3.17;2.03;;;;;;;18.22;58.60;101612.09;4975874;28;20510;-78
2021/06/27 09:27:18;;;;;;;3.60;1.83;;;;;;;18.38;59.20;101600.78;4974934;28;20026;-79
2021/06/27 09:29:43;;;;;;;;;;;;;;;18.65;58.68;101607.09;4959778;28;20071;-78
2021/06/27 09:32:24;;;;;;;4.15;2.10;;;;;;;18.79;57.35;101599.84;4975073;28;20008;-78
2021/06/27 09:34:50;;;;;;;2.83;1.90;;;;;;;18.88;57.43;101597.72;4979097;28;20483;-78
2021/06/27 09:37:26;;;;;;;2.90;1.90;;;;;;;19.14;57.47;101598.75;4976858;28;20026;-86
2021/06/27 09:40:01;;;;;;;2.80;1.67;;;;;;;19.29;55.71;101596.59;4974145;28;20060;-80
2021/06/27 09:42:28;;;;;;;3.88;1.92;;;;;;;19.43;55.45;101591.97;4974927;28;20088;-78
2021/06/27 09:45:07;;;;;;;2.20;1.90;;;;;;;19.31;55.60;101589.06;4977864;28;20035;-79
2021/06/27 09:47:32;;;;;;;3.42;1.63;;;;;;;19.51;55.42;101583.56;4964679;28;20034;-80
2021/06/27 09:49:59;;;;;;;3.13;1.90;;;;;;;19.62;54.66;101587.50;4957490;28;20599;-81
2021/06/27 09:52:36;;;;;;;3.97;1.90;;;;;;;19.72;53.99;101588.75;4964476;28;20033;-78
2021/06/27 09:55:07;;;;;;;2.38;1.90;;;;;;;19.78;53.59;101584.31;4973453;28;20606;-79
2021/06/27 09:57:32;;;;;;;3.83;1.92;;;;;;;19.84;53.80;101580.72;4968927;28;20471;-79
2021/06/27 09:59:58;;;;;;;2.92;1.67;;;;;;;19.91;53.83;101578.78;4956456;28;20034;-84
2021/06/27 10:02:23;;;;;;;1.95;1.48;;;;;;;19.42;54.27;101571.19;4957469;28;20058;-85
2021/06/27 10:04:48;;;;;;;3.60;1.80;;;;;;;19.02;54.65;101582.19;4964720;28;20030;-85
2021/06/27 10:07:14;;;;;;;4.45;1.85;;;;;;;18.84;55.21;101580.09;4984800;28;20026;-85
2021/06/27 10:09:43;;;;;;;2.83;1.50;;;;;;;18.71;55.57;101572.78;4981838;28;20026;-85
2021/06/27 10:12:09;;;;;;;2.47;1.80;;;;;;;18.37;56.27;101585.53;4990758;28;20464;-86
2021/06/27 10:14:55;;;;;;;2.38;1.80;;;;;;;18.21;57.50;101577.75;4996072;28;20046;-85
2021/06/27 10:17:23;;;;;;;2.50;1.60;;;;;;;17.95;58.05;101575.78;5010084;28;20026;-85
2021/06/27 10:19:49;;;;;;;3.22;1.83;;;;;;;17.64;58.18;101560.78;4968638;28;20054;-86
2021/06/27 10:22:15;;;;;;;3.60;1.70;;;;;;;17.87;58.17;101571.38;4976514;28;20045;-86
2021/06/27 10:24:40;;;;;;;3.72;1.65;;;;;;;18.08;57.65;101573.09;4946691;28;20066;-86
2021/06/27 10:27:07;;;;;;;4.53;1.77;;;;;;;18.44;56.17;101572.75;4995358;28;20054;-86
2021/06/27 10:29:36;;;;;;;3.25;1.70;;;;;;;18.27;55.53;101560.56;4964492;28;20035;-84
2021/06/27 10:32:02;;;;;;;2.00;1.70;;;;;;;18.43;55.28;101564.78;4943558;28;20388;-86
2021/06/27 10:34:27;;;;;;;2.20;1.80;;;;;;;18.98;55.17;101568.16;4962597;28;20022;-86
2021/06/27 10:37:05;;;;;;;2.03;1.60;;;;;;;18.95;54.44;101557.69;4962090;28;20026;-84
2021/06/27 10:39:31;;;;;;;3.40;1.83;;;;;;;19.10;54.23;101560.16;5002813;28;20033;-84
2021/06/27 10:42:01;;;;;;;3.63;2.10;;;;;;;19.70;52.96;101549.94;4978761;28;20757;-85
2021/06/27 10:44:57;;;;;;;2.33;1.50;;;;;;;20.24;51.21;101550.44;4986845;28;20038;-85
2021/06/27 10:47:34;;;;;;;2.95;1.50;;;;;;;20.75;49.87;101545.91;4963455;28;20049;-85
2021/06/27 10:50:04;;;;;;;1.67;1.35;;;;;;;20.92;48.71;101540.69;4977811;28;20093;-84
2021/06/27 10:52:30;;;;;;;2.65;1.58;;;;;;;21.06;48.14;101537.59;4978067;28;20026;-85
2021/06/27 10:55:28;;;;;;;2.33;1.30;;;;;;;21.16;47.87;101536.22;4972788;28;20195;-83
2021/06/27 10:57:53;;;;;;;3.67;1.48;;;;;;;21.49;47.32;101527.66;4984620;28;20093;-84
2021/06/27 11:00:19;;;;;;;2.30;1.40;;;;;;;21.84;47.65;101536.03;4985488;28;20523;-85
2021/06/27 11:02:45;;;;;;;1.52;1.25;;;;;;;22.06;46.57;101517.16;4957587;28;20030;-80
2021/06/27 11:05:26;;;;;;;2.83;1.50;;;;;;;22.21;46.35;101527.72;4974926;28;20030;-85
2021/06/27 11:07:52;;;;;;;1.70;1.30;;;;;;;22.21;45.68;101527.72;4963083;28;20034;-85
2021/06/27 11:10:17;;;;;;;2.13;1.42;;;;;;;22.44;45.70;101526.09;4960190;28;20030;-84
2021/06/27 11:13:04;;;;;;;2.95;1.50;;;;;;;22.50;44.61;101505.97;4982061;28;20061;-85
2021/06/27 11:15:32;;;;;;;3.20;1.50;;;;;;;22.66;43.71;101508.00;4980193;28;20030;-85
2021/06/27 11:18:07;;;;;;;3.15;1.25;;;;;;;22.85;44.31;101514.19;4959520;28;20052;-85
2021/06/27 11:20:48;;;;;;;2.50;1.50;;;;;;;23.09;44.95;101511.47;4982830;28;20022;-85
2021/06/27 11:23:14;;;;;;;2.20;1.60;;;;;;;23.16;43.59;101513.00;4973638;28;20037;-85
2021/06/27 11:25:48;;;;;;;2.28;1.15;;;;;;;23.11;43.46;101510.16;4960694;28;20034;-85
2021/06/27 11:28:16;;;;;;;3.78;1.60;;;;;;;22.95;43.59;101506.19;4978841;28;20377;-85